SAS2742 ENGM-EYPA
Flight info
| Callsign | SAS2742 |
|---|---|
| Flight time | 1h 4m |
| Altitude | 38999 |
| Route | MASEV Z183 LEGPO DCT GELDA M996 TIRIN |
| Aircraft | A320/M-SDE3FGHIJ1RWXYZ/ALB1 |
Departure
| Time | 2026-04-18 07:00 |
|---|---|
| Airport | Oslo-Gardermoen International Airport (ENGM) |
Arrival
| Time | 2026-04-18 08:05 |
|---|---|
| Airport | Palanga International Airport (EYPA) |
| Time | Latitude | Longitude | Altitude | Speed | Heading |
|---|---|---|---|---|---|
| 2026-04-18 06:33 | 60.19413 | 11.10462 | 685 ft | 0 kts | 196° |
| 2026-04-18 06:49 | 60.19423 | 11.10468 | 678 ft | 4 kts | 196° |
| 2026-04-18 06:49 | 60.19449 | 11.10483 | 681 ft | 4 kts | 195° |
| 2026-04-18 06:49 | 60.19475 | 11.10498 | 678 ft | 4 kts | 195° |
| 2026-04-18 06:50 | 60.19500 | 11.10512 | 681 ft | 4 kts | 183° |
| 2026-04-18 06:50 | 60.19521 | 11.10499 | 679 ft | 4 kts | 122° |
| 2026-04-18 06:50 | 60.19528 | 11.10470 | 683 ft | 1 kts | 106° |
| 2026-04-18 06:50 | 60.19521 | 11.10516 | 678 ft | 4 kts | 106° |
| 2026-04-18 06:51 | 60.19514 | 11.10568 | 683 ft | 4 kts | 106° |
| 2026-04-18 06:51 | 60.19506 | 11.10621 | 682 ft | 4 kts | 106° |
| 2026-04-18 06:51 | 60.19505 | 11.10634 | 681 ft | 0 kts | 106° |
| 2026-04-18 06:54 | 60.19504 | 11.10635 | 683 ft | 1 kts | 106° |
| 2026-04-18 06:54 | 60.19498 | 11.10682 | 683 ft | 7 kts | 106° |
| 2026-04-18 06:54 | 60.19481 | 11.10800 | 683 ft | 10 kts | 106° |
| 2026-04-18 06:54 | 60.19458 | 11.10962 | 683 ft | 14 kts | 106° |
| 2026-04-18 06:55 | 60.19429 | 11.11166 | 683 ft | 14 kts | 105° |
| 2026-04-18 06:55 | 60.19382 | 11.11257 | 684 ft | 11 kts | 189° |
| 2026-04-18 06:55 | 60.19297 | 11.11210 | 682 ft | 14 kts | 196° |
| 2026-04-18 06:55 | 60.19192 | 11.11150 | 683 ft | 17 kts | 196° |
| 2026-04-18 06:56 | 60.19062 | 11.11076 | 681 ft | 21 kts | 196° |
| 2026-04-18 06:56 | 60.18909 | 11.10985 | 683 ft | 24 kts | 196° |
| 2026-04-18 06:56 | 60.18736 | 11.10886 | 683 ft | 27 kts | 196° |
| 2026-04-18 06:56 | 60.18557 | 11.10783 | 682 ft | 20 kts | 195° |
| 2026-04-18 06:57 | 60.18413 | 11.10699 | 681 ft | 24 kts | 196° |
| 2026-04-18 06:57 | 60.18059 | 11.10496 | 679 ft | 22 kts | 196° |
| 2026-04-18 06:57 | 60.17923 | 11.10416 | 678 ft | 22 kts | 196° |
| 2026-04-18 06:58 | 60.17764 | 11.10324 | 678 ft | 22 kts | 196° |
| 2026-04-18 06:58 | 60.17660 | 11.10304 | 676 ft | 13 kts | 146° |
| 2026-04-18 06:58 | 60.17628 | 11.10486 | 676 ft | 10 kts | 106° |
| 2026-04-18 06:58 | 60.17616 | 11.10568 | 676 ft | 4 kts | 105° |
| 2026-04-18 06:59 | 60.17608 | 11.10632 | 679 ft | 5 kts | 105° |
| 2026-04-18 06:59 | 60.17597 | 11.10735 | 679 ft | 9 kts | 97° |
| 2026-04-18 06:59 | 60.17675 | 11.10837 | 680 ft | 31 kts | 16° |
| 2026-04-18 06:59 | 60.18129 | 11.11098 | 682 ft | 101 kts | 16° |
| 2026-04-18 07:00 | 60.18986 | 11.11595 | 686 ft | 153 kts | 16° |
| 2026-04-18 07:00 | 60.20057 | 11.12247 | 1160 ft | 159 kts | 19° |
| 2026-04-18 07:00 | 60.20928 | 11.13534 | 1814 ft | 158 kts | 68° |
| 2026-04-18 07:00 | 60.21176 | 11.15637 | 2460 ft | 155 kts | 84° |
| 2026-04-18 07:01 | 60.21361 | 11.17765 | 3050 ft | 155 kts | 84° |
| 2026-04-18 07:01 | 60.21559 | 11.19900 | 3602 ft | 155 kts | 84° |
| 2026-04-18 07:01 | 60.21763 | 11.22074 | 4031 ft | 166 kts | 84° |
| 2026-04-18 07:01 | 60.21994 | 11.24545 | 4303 ft | 189 kts | 84° |
| 2026-04-18 07:02 | 60.22256 | 11.27301 | 4578 ft | 214 kts | 83° |
| 2026-04-18 07:02 | 60.22554 | 11.30409 | 4979 ft | 238 kts | 83° |
| 2026-04-18 07:02 | 60.22910 | 11.33840 | 5459 ft | 262 kts | 81° |
| 2026-04-18 07:02 | 60.23137 | 11.37511 | 6244 ft | 267 kts | 97° |
| 2026-04-18 07:03 | 60.22990 | 11.41249 | 7150 ft | 271 kts | 98° |
| 2026-04-18 07:03 | 60.22827 | 11.45007 | 8002 ft | 275 kts | 98° |
| 2026-04-18 07:03 | 60.22652 | 11.48924 | 8889 ft | 280 kts | 98° |
| 2026-04-18 07:03 | 60.22479 | 11.52821 | 9736 ft | 286 kts | 98° |
| 2026-04-18 07:04 | 60.22300 | 11.56911 | 10463 ft | 296 kts | 97° |
| 2026-04-18 07:04 | 60.22114 | 11.61134 | 10750 ft | 319 kts | 97° |
| 2026-04-18 07:04 | 60.21911 | 11.65725 | 11273 ft | 330 kts | 97° |
| 2026-04-18 07:04 | 60.21709 | 11.70302 | 11977 ft | 335 kts | 97° |
| 2026-04-18 07:05 | 60.21501 | 11.75002 | 12722 ft | 339 kts | 97° |
| 2026-04-18 07:05 | 60.21290 | 11.79757 | 13467 ft | 343 kts | 96° |
| 2026-04-18 07:05 | 60.21076 | 11.84569 | 14196 ft | 347 kts | 96° |
| 2026-04-18 07:05 | 60.20859 | 11.89430 | 14853 ft | 351 kts | 96° |
| 2026-04-18 07:06 | 60.20635 | 11.94349 | 15499 ft | 355 kts | 96° |
| 2026-04-18 07:06 | 60.20405 | 11.99322 | 16140 ft | 359 kts | 96° |
| 2026-04-18 07:06 | 60.20171 | 12.04344 | 16799 ft | 363 kts | 96° |
| 2026-04-18 07:06 | 60.19933 | 12.09438 | 17418 ft | 367 kts | 96° |
| 2026-04-18 07:07 | 60.19690 | 12.14579 | 18064 ft | 372 kts | 97° |
| 2026-04-18 07:07 | 60.19440 | 12.19782 | 18687 ft | 376 kts | 97° |
| 2026-04-18 07:07 | 60.19185 | 12.25027 | 19269 ft | 379 kts | 97° |
| 2026-04-18 07:07 | 60.18925 | 12.30334 | 19857 ft | 383 kts | 97° |
| 2026-04-18 07:08 | 60.18640 | 12.35680 | 20451 ft | 386 kts | 101° |
| 2026-04-18 07:08 | 60.17837 | 12.40808 | 21013 ft | 386 kts | 119° |
| 2026-04-18 07:08 | 60.16893 | 12.43824 | 21386 ft | 386 kts | 130° |
| 2026-04-18 07:08 | 60.15224 | 12.48077 | 21948 ft | 389 kts | 131° |
| 2026-04-18 07:09 | 60.13531 | 12.52329 | 22516 ft | 392 kts | 131° |
| 2026-04-18 07:09 | 60.11817 | 12.56616 | 23089 ft | 395 kts | 131° |
| 2026-04-18 07:09 | 60.10090 | 12.60935 | 23676 ft | 399 kts | 131° |
| 2026-04-18 07:09 | 60.08352 | 12.65284 | 24174 ft | 402 kts | 131° |
| 2026-04-18 07:10 | 60.06596 | 12.69676 | 24641 ft | 405 kts | 131° |
| 2026-04-18 07:10 | 60.04828 | 12.74095 | 25087 ft | 409 kts | 131° |
| 2026-04-18 07:10 | 60.03041 | 12.78551 | 25522 ft | 412 kts | 131° |
| 2026-04-18 07:10 | 60.01243 | 12.83036 | 25952 ft | 415 kts | 131° |
| 2026-04-18 07:11 | 59.99432 | 12.87555 | 26378 ft | 419 kts | 131° |
| 2026-04-18 07:11 | 59.97600 | 12.92110 | 26792 ft | 422 kts | 132° |
| 2026-04-18 07:11 | 59.95752 | 12.96686 | 27211 ft | 425 kts | 132° |
| 2026-04-18 07:11 | 59.93887 | 13.01295 | 27612 ft | 428 kts | 132° |
| 2026-04-18 07:12 | 59.92006 | 13.05932 | 28010 ft | 432 kts | 132° |
| 2026-04-18 07:12 | 59.90111 | 13.10597 | 28414 ft | 435 kts | 132° |
| 2026-04-18 07:12 | 59.88197 | 13.15298 | 28807 ft | 438 kts | 132° |
| 2026-04-18 07:12 | 59.86271 | 13.20015 | 29195 ft | 441 kts | 132° |
| 2026-04-18 07:13 | 59.84331 | 13.24760 | 29574 ft | 444 kts | 133° |
| 2026-04-18 07:13 | 59.82397 | 13.29484 | 29906 ft | 448 kts | 132° |
| 2026-04-18 07:13 | 59.80421 | 13.34306 | 30244 ft | 452 kts | 132° |
| 2026-04-18 07:13 | 59.78429 | 13.39155 | 30559 ft | 455 kts | 132° |
| 2026-04-18 07:14 | 59.76422 | 13.44031 | 30858 ft | 458 kts | 132° |
| 2026-04-18 07:14 | 59.74398 | 13.48942 | 31167 ft | 461 kts | 133° |
| 2026-04-18 07:14 | 59.72360 | 13.53874 | 31486 ft | 464 kts | 133° |
| 2026-04-18 07:14 | 59.70309 | 13.58821 | 31795 ft | 466 kts | 133° |
| 2026-04-18 07:15 | 59.68249 | 13.63778 | 32219 ft | 465 kts | 133° |
| 2026-04-18 07:15 | 59.66193 | 13.68716 | 32666 ft | 465 kts | 133° |
| 2026-04-18 07:15 | 59.64138 | 13.73638 | 33112 ft | 464 kts | 133° |
| 2026-04-18 07:15 | 59.62080 | 13.78552 | 33554 ft | 464 kts | 133° |
| 2026-04-18 07:16 | 59.60024 | 13.83454 | 33961 ft | 464 kts | 133° |
| 2026-04-18 07:16 | 59.57957 | 13.88371 | 34308 ft | 466 kts | 133° |
| 2026-04-18 07:16 | 59.55886 | 13.93291 | 34643 ft | 466 kts | 133° |
| 2026-04-18 07:16 | 59.53818 | 13.98199 | 34983 ft | 466 kts | 133° |
| 2026-04-18 07:17 | 59.51747 | 14.03111 | 35347 ft | 465 kts | 133° |
| 2026-04-18 07:17 | 59.49680 | 14.08008 | 35703 ft | 465 kts | 133° |
| 2026-04-18 07:17 | 59.47613 | 14.12887 | 36060 ft | 464 kts | 133° |
| 2026-04-18 07:17 | 59.45540 | 14.17750 | 36414 ft | 463 kts | 133° |
| 2026-04-18 07:18 | 59.43468 | 14.22588 | 36752 ft | 463 kts | 133° |
| 2026-04-18 07:18 | 59.41396 | 14.27425 | 37083 ft | 462 kts | 133° |
| 2026-04-18 07:18 | 59.39329 | 14.32252 | 37403 ft | 462 kts | 132° |
| 2026-04-18 07:18 | 59.37267 | 14.37068 | 37689 ft | 461 kts | 132° |
| 2026-04-18 07:19 | 59.35202 | 14.41886 | 37940 ft | 462 kts | 132° |
| 2026-04-18 07:19 | 59.33128 | 14.46709 | 38219 ft | 462 kts | 132° |
| 2026-04-18 07:19 | 59.31082 | 14.51446 | 38504 ft | 462 kts | 132° |
| 2026-04-18 07:19 | 59.29008 | 14.56233 | 38807 ft | 461 kts | 132° |
| 2026-04-18 07:20 | 59.26934 | 14.61013 | 39062 ft | 460 kts | 132° |
| 2026-04-18 07:20 | 59.24833 | 14.65853 | 39226 ft | 461 kts | 132° |
| 2026-04-18 07:20 | 59.20678 | 14.75394 | 39272 ft | 462 kts | 132° |
| 2026-04-18 07:21 | 59.16537 | 14.84867 | 39277 ft | 462 kts | 132° |
| 2026-04-18 07:21 | 59.12365 | 14.94379 | 39277 ft | 462 kts | 131° |
| 2026-04-18 07:22 | 59.08169 | 15.03886 | 39275 ft | 463 kts | 131° |
| 2026-04-18 07:22 | 59.03971 | 15.13364 | 39277 ft | 463 kts | 132° |
| 2026-04-18 07:23 | 58.99760 | 15.22840 | 39280 ft | 464 kts | 132° |
| 2026-04-18 07:23 | 58.95537 | 15.32298 | 39276 ft | 464 kts | 132° |
| 2026-04-18 07:24 | 58.91311 | 15.41725 | 39280 ft | 464 kts | 132° |
| 2026-04-18 07:24 | 58.87071 | 15.51138 | 39277 ft | 464 kts | 132° |
| 2026-04-18 07:25 | 58.82819 | 15.60546 | 39280 ft | 465 kts | 132° |
| 2026-04-18 07:25 | 58.78556 | 15.69936 | 39283 ft | 465 kts | 132° |
| 2026-04-18 07:26 | 58.74280 | 15.79319 | 39282 ft | 466 kts | 132° |
| 2026-04-18 07:26 | 58.69998 | 15.88677 | 39284 ft | 466 kts | 132° |
| 2026-04-18 07:27 | 58.65711 | 15.98023 | 39271 ft | 466 kts | 131° |
| 2026-04-18 07:27 | 58.61420 | 16.07338 | 39264 ft | 466 kts | 131° |
| 2026-04-18 07:28 | 58.57121 | 16.16623 | 39250 ft | 466 kts | 132° |
| 2026-04-18 07:28 | 58.52814 | 16.25887 | 39250 ft | 466 kts | 132° |
| 2026-04-18 07:29 | 58.48488 | 16.35142 | 39254 ft | 467 kts | 132° |
| 2026-04-18 07:29 | 58.44155 | 16.44380 | 39270 ft | 467 kts | 131° |
| 2026-04-18 07:30 | 58.39816 | 16.53620 | 39274 ft | 467 kts | 131° |
| 2026-04-18 07:30 | 58.35469 | 16.62835 | 39288 ft | 468 kts | 132° |
| 2026-04-18 07:31 | 58.31134 | 16.71967 | 39289 ft | 468 kts | 132° |
| 2026-04-18 07:31 | 58.26762 | 16.81149 | 39288 ft | 468 kts | 132° |
| 2026-04-18 07:32 | 58.22393 | 16.90304 | 39303 ft | 468 kts | 132° |
| 2026-04-18 07:32 | 58.18011 | 16.99435 | 39282 ft | 468 kts | 132° |
| 2026-04-18 07:33 | 58.13620 | 17.08533 | 39283 ft | 468 kts | 132° |
| 2026-04-18 07:33 | 58.09222 | 17.17622 | 39285 ft | 468 kts | 132° |
| 2026-04-18 07:34 | 58.04815 | 17.26692 | 39291 ft | 469 kts | 132° |
| 2026-04-18 07:34 | 58.00397 | 17.35752 | 39293 ft | 469 kts | 132° |
| 2026-04-18 07:35 | 57.95974 | 17.44796 | 39306 ft | 469 kts | 132° |
| 2026-04-18 07:35 | 57.91541 | 17.53827 | 39298 ft | 470 kts | 132° |
| 2026-04-18 07:36 | 57.87093 | 17.62833 | 39295 ft | 470 kts | 132° |
| 2026-04-18 07:36 | 57.82638 | 17.71830 | 39294 ft | 470 kts | 132° |
| 2026-04-18 07:37 | 57.78204 | 17.80749 | 39294 ft | 471 kts | 133° |
| 2026-04-18 07:37 | 57.73736 | 17.89703 | 39278 ft | 471 kts | 133° |
| 2026-04-18 07:38 | 57.69259 | 17.98647 | 39283 ft | 471 kts | 133° |
| 2026-04-18 07:38 | 57.64768 | 18.07566 | 39287 ft | 471 kts | 133° |
| 2026-04-18 07:39 | 57.60272 | 18.16465 | 39294 ft | 471 kts | 133° |
| 2026-04-18 07:39 | 57.55772 | 18.25351 | 39297 ft | 471 kts | 133° |
| 2026-04-18 07:40 | 57.51266 | 18.34196 | 39305 ft | 471 kts | 133° |
| 2026-04-18 07:40 | 57.46752 | 18.43036 | 39298 ft | 471 kts | 133° |
| 2026-04-18 07:41 | 57.42229 | 18.51853 | 39295 ft | 472 kts | 133° |
| 2026-04-18 07:41 | 57.37693 | 18.60653 | 39294 ft | 472 kts | 133° |
| 2026-04-18 07:42 | 57.33191 | 18.69380 | 39293 ft | 472 kts | 133° |
| 2026-04-18 07:42 | 57.28649 | 18.78154 | 39313 ft | 472 kts | 133° |
| 2026-04-18 07:43 | 57.24091 | 18.86909 | 39299 ft | 473 kts | 133° |
| 2026-04-18 07:43 | 57.19522 | 18.95637 | 39293 ft | 474 kts | 133° |
| 2026-04-18 07:44 | 57.14934 | 19.04384 | 39288 ft | 474 kts | 133° |
| 2026-04-18 07:44 | 57.10004 | 19.12440 | 39225 ft | 474 kts | 142° |
| 2026-04-18 07:45 | 57.07391 | 19.16189 | 38473 ft | 480 kts | 142° |
| 2026-04-18 07:45 | 57.04734 | 19.19980 | 37565 ft | 486 kts | 142° |
| 2026-04-18 07:45 | 57.02047 | 19.23792 | 36772 ft | 491 kts | 141° |
| 2026-04-18 07:45 | 56.99334 | 19.27630 | 35991 ft | 494 kts | 141° |
| 2026-04-18 07:46 | 56.96603 | 19.31491 | 35205 ft | 497 kts | 141° |
| 2026-04-18 07:46 | 56.93855 | 19.35369 | 34438 ft | 501 kts | 141° |
| 2026-04-18 07:46 | 56.91091 | 19.39270 | 33572 ft | 503 kts | 141° |
| 2026-04-18 07:46 | 56.88311 | 19.43192 | 32700 ft | 504 kts | 141° |
| 2026-04-18 07:47 | 56.85533 | 19.47114 | 31863 ft | 504 kts | 141° |
| 2026-04-18 07:47 | 56.82756 | 19.51029 | 31024 ft | 504 kts | 141° |
| 2026-04-18 07:47 | 56.79981 | 19.54922 | 30202 ft | 503 kts | 141° |
| 2026-04-18 07:47 | 56.77219 | 19.58779 | 29320 ft | 497 kts | 141° |
| 2026-04-18 07:48 | 56.74493 | 19.62573 | 28480 ft | 489 kts | 141° |
| 2026-04-18 07:48 | 56.71807 | 19.66303 | 27637 ft | 482 kts | 141° |
| 2026-04-18 07:48 | 56.69159 | 19.69972 | 26837 ft | 474 kts | 141° |
| 2026-04-18 07:48 | 56.66554 | 19.73581 | 26043 ft | 467 kts | 141° |
| 2026-04-18 07:49 | 56.63988 | 19.77136 | 25287 ft | 460 kts | 141° |
| 2026-04-18 07:49 | 56.61456 | 19.80638 | 24535 ft | 454 kts | 141° |
| 2026-04-18 07:49 | 56.58968 | 19.84075 | 23833 ft | 447 kts | 141° |
| 2026-04-18 07:49 | 56.56509 | 19.87467 | 23010 ft | 440 kts | 141° |
| 2026-04-18 07:50 | 56.54090 | 19.90796 | 22219 ft | 434 kts | 141° |
| 2026-04-18 07:50 | 56.51731 | 19.94041 | 21476 ft | 429 kts | 141° |
| 2026-04-18 07:50 | 56.49372 | 19.97280 | 20762 ft | 423 kts | 141° |
| 2026-04-18 07:50 | 56.47036 | 20.00478 | 20096 ft | 419 kts | 142° |
| 2026-04-18 07:51 | 56.44723 | 20.03635 | 19424 ft | 415 kts | 141° |
| 2026-04-18 07:51 | 56.42397 | 20.06803 | 18750 ft | 411 kts | 142° |
| 2026-04-18 07:51 | 56.40132 | 20.09889 | 18028 ft | 406 kts | 142° |
| 2026-04-18 07:51 | 56.37922 | 20.12905 | 17294 ft | 401 kts | 142° |
| 2026-04-18 07:52 | 56.35711 | 20.15922 | 16562 ft | 396 kts | 142° |
| 2026-04-18 07:52 | 56.33523 | 20.18893 | 15832 ft | 391 kts | 142° |
| 2026-04-18 07:52 | 56.31364 | 20.21817 | 15108 ft | 386 kts | 143° |
| 2026-04-18 07:52 | 56.29226 | 20.24705 | 14400 ft | 382 kts | 143° |
| 2026-04-18 07:53 | 56.27114 | 20.27557 | 13659 ft | 377 kts | 143° |
| 2026-04-18 07:53 | 56.25027 | 20.30372 | 12898 ft | 372 kts | 143° |
| 2026-04-18 07:53 | 56.22971 | 20.33135 | 12153 ft | 367 kts | 143° |
| 2026-04-18 07:53 | 56.20939 | 20.35865 | 11448 ft | 362 kts | 143° |
| 2026-04-18 07:54 | 56.18939 | 20.38555 | 10765 ft | 357 kts | 143° |
| 2026-04-18 07:54 | 56.16963 | 20.41209 | 10061 ft | 353 kts | 143° |
| 2026-04-18 07:54 | 56.15003 | 20.43835 | 9294 ft | 350 kts | 142° |
| 2026-04-18 07:54 | 56.13065 | 20.46424 | 8582 ft | 345 kts | 142° |
| 2026-04-18 07:55 | 56.11149 | 20.48983 | 7881 ft | 341 kts | 142° |
| 2026-04-18 07:55 | 56.09258 | 20.51507 | 7206 ft | 337 kts | 142° |
| 2026-04-18 07:55 | 56.07387 | 20.53997 | 6543 ft | 333 kts | 142° |
| 2026-04-18 07:55 | 56.05539 | 20.56456 | 5844 ft | 329 kts | 142° |
| 2026-04-18 07:56 | 56.03712 | 20.58888 | 5176 ft | 326 kts | 142° |
| 2026-04-18 07:56 | 56.01905 | 20.61290 | 4506 ft | 322 kts | 142° |
| 2026-04-18 07:56 | 56.00115 | 20.63666 | 4244 ft | 319 kts | 142° |
| 2026-04-18 07:56 | 55.98380 | 20.65969 | 4082 ft | 301 kts | 142° |
| 2026-04-18 07:57 | 55.96751 | 20.68127 | 3969 ft | 283 kts | 142° |
| 2026-04-18 07:57 | 55.95214 | 20.70159 | 3872 ft | 267 kts | 142° |
| 2026-04-18 07:57 | 55.93758 | 20.72082 | 3796 ft | 257 kts | 142° |
| 2026-04-18 07:57 | 55.92324 | 20.73972 | 3745 ft | 256 kts | 142° |
| 2026-04-18 07:58 | 55.89485 | 20.77705 | 3564 ft | 251 kts | 141° |
| 2026-04-18 07:58 | 55.88115 | 20.79502 | 3510 ft | 239 kts | 141° |
| 2026-04-18 07:58 | 55.86782 | 20.81251 | 3511 ft | 237 kts | 141° |
| 2026-04-18 07:59 | 55.85454 | 20.82997 | 3512 ft | 237 kts | 141° |
| 2026-04-18 07:59 | 55.84224 | 20.84927 | 3512 ft | 235 kts | 127° |
| 2026-04-18 07:59 | 55.83370 | 20.87364 | 3512 ft | 231 kts | 109° |
| 2026-04-18 07:59 | 55.82941 | 20.90093 | 3512 ft | 228 kts | 97° |
| 2026-04-18 08:00 | 55.82736 | 20.91968 | 3512 ft | 228 kts | 98° |
| 2026-04-18 08:00 | 55.82326 | 20.95634 | 3513 ft | 229 kts | 98° |
| 2026-04-18 08:00 | 55.82012 | 20.98398 | 3473 ft | 226 kts | 98° |
| 2026-04-18 08:00 | 55.81851 | 21.00263 | 3232 ft | 224 kts | 87° |
| 2026-04-18 08:01 | 55.82339 | 21.02764 | 2922 ft | 215 kts | 45° |
| 2026-04-18 08:01 | 55.83602 | 21.03994 | 2616 ft | 205 kts | 13° |
| 2026-04-18 08:01 | 55.84945 | 21.04540 | 2339 ft | 192 kts | 12° |
| 2026-04-18 08:01 | 55.86208 | 21.05018 | 2116 ft | 181 kts | 12° |
| 2026-04-18 08:02 | 55.87412 | 21.05475 | 1834 ft | 170 kts | 12° |
| 2026-04-18 08:02 | 55.88502 | 21.05896 | 1607 ft | 155 kts | 12° |
| 2026-04-18 08:02 | 55.89509 | 21.06289 | 1415 ft | 143 kts | 12° |
| 2026-04-18 08:02 | 55.90462 | 21.06660 | 1234 ft | 138 kts | 12° |
| 2026-04-18 08:03 | 55.91395 | 21.07026 | 1062 ft | 137 kts | 12° |
| 2026-04-18 08:03 | 55.92321 | 21.07394 | 865 ft | 136 kts | 12° |
| 2026-04-18 08:03 | 55.93241 | 21.07761 | 703 ft | 136 kts | 12° |
| 2026-04-18 08:03 | 55.94166 | 21.08129 | 521 ft | 136 kts | 12° |
| 2026-04-18 08:04 | 55.95090 | 21.08495 | 320 ft | 136 kts | 12° |
| 2026-04-18 08:04 | 55.96014 | 21.08863 | 126 ft | 136 kts | 12° |
| 2026-04-18 08:04 | 55.96913 | 21.09220 | 40 ft | 121 kts | 13° |
| 2026-04-18 08:04 | 55.97571 | 21.09486 | 38 ft | 72 kts | 13° |
| 2026-04-18 08:05 | 55.97959 | 21.09642 | 38 ft | 50 kts | 13° |
| 2026-04-18 08:05 | 55.98188 | 21.09722 | 38 ft | 25 kts | 0° |
| 2026-04-18 08:05 | 55.98295 | 21.09731 | 38 ft | 8 kts | 60° |
| 2026-04-18 08:05 | 55.98240 | 21.09757 | 38 ft | 13 kts | 192° |
| 2026-04-18 08:06 | 55.98126 | 21.09710 | 38 ft | 19 kts | 193° |
| 2026-04-18 08:06 | 55.97983 | 21.09651 | 38 ft | 23 kts | 191° |
| 2026-04-18 08:06 | 55.97818 | 21.09585 | 38 ft | 26 kts | 193° |
| 2026-04-18 08:06 | 55.97631 | 21.09510 | 38 ft | 28 kts | 192° |
| 2026-04-18 08:07 | 55.97455 | 21.09439 | 38 ft | 26 kts | 193° |
| 2026-04-18 08:07 | 55.97286 | 21.09371 | 38 ft | 23 kts | 192° |
| 2026-04-18 08:07 | 55.97143 | 21.09325 | 38 ft | 16 kts | 171° |
| 2026-04-18 08:07 | 55.97095 | 21.09456 | 37 ft | 12 kts | 104° |
| 2026-04-18 08:08 | 55.97080 | 21.09530 | 36 ft | 4 kts | 124° |
| 2026-04-18 08:08 | 55.97047 | 21.09567 | 38 ft | 7 kts | 156° |
| 2026-04-18 08:08 | 55.97007 | 21.09629 | 38 ft | 7 kts | 120° |
| 2026-04-18 08:08 | 55.97026 | 21.09686 | 38 ft | 0 kts | 12° |
| 2026-04-18 08:09 | 55.97040 | 21.09683 | 38 ft | 3 kts | 340° |
| 2026-04-18 08:09 | 55.97049 | 21.09649 | 38 ft | 0 kts | 288° |